Forside
METAR-TAF:

METAR-TAF

Lufthavne :

Jekaterinburg-Koltsovo Internationale Lufthavn

Jekaterinburg, Rusland

Breddekreds: 56-50N, længdekreds: 060-38E, højde: 237 m

Aktuelle vejr

Denne rapport blev lavet for 27 minutter siden, kl. 23:30 UTC
Vind 6 kt fra vest
Temperatur -15°C
Fugtighed 85%
Tryk 1030 hPa
Sigt 10 km eller mere
Spredte skyer i en højde af 400 ft

METAR: USSS 162330Z 26003MPS 9999 SCT004 M15/M17 Q1030 R26R/490137 NOSIG RMK QFE751/1002

Tid: 04:57 (23:57 UTC)

Vejrudsigter

Denne rapport blev lavet for 1 time og 8 minutter siden, kl. 22:49 UTC
Foreløbig gælder fra 17 på 00 UTC til 17 på 24 UTC
Vind 6 kt fra vest
Sigt: 3100 m
Brudte skyer i en højde af 500 ft
let sne, dis
Midlertidig
fra 17 på 00 UTC til 17 på 06 UTC
Brudte skyer i en højde af 300 ft
ændring
fra 17 på 07 UTC til 17 på 09 UTC
Sigt: 6000 m
Brudte skyer i en højde af 1100 ft
let sne

TAF: USSS 162249Z 1700/1724 26003MPS 3100 -SN BR BKN005 TEMPO 1700/1706 BKN003 BECMG 1707/1709 6000 -SN BKN011

Vejrobservationer og prognoser fra mere end 4000 lufthavne (METAR og TAF).

De gule og røde prikker repræsenterer de meteorologiske stationer.

Flyt musen over at se navnet på stationen.

Så klik over at se vejr observationer og prognoser.

At skifte det kort: Klik på de grønne knapper med et sort kors for at zoome ind; på den grønne knap med en bindestreg for at zoome ud; eller på de grønne pile for tilstødende kort.


METAR-TAF: